sensor_id;sensor_type;location;lat;lon;timestamp;temperature;humidity
31837;DHT22;18401;49.344;6.240;2023-03-01T00:00:39;-1.30;99.90
31837;DHT22;18401;49.344;6.240;2023-03-01T00:03:05;-1.20;99.90
31837;DHT22;18401;49.344;6.240;2023-03-01T00:05:31;-1.30;99.90
31837;DHT22;18401;49.344;6.240;2023-03-01T00:07:57;-1.20;99.90
31837;DHT22;18401;49.344;6.240;2023-03-01T00:10:23;-1.20;99.90
31837;DHT22;18401;49.344;6.240;2023-03-01T00:12:49;-1.20;99.90
31837;DHT22;18401;49.344;6.240;2023-03-01T00:15:14;-1.30;99.90
31837;DHT22;18401;49.344;6.240;2023-03-01T00:17:40;-1.30;99.90
31837;DHT22;18401;49.344;6.240;2023-03-01T00:20:06;-1.20;99.90
31837;DHT22;18401;49.344;6.240;2023-03-01T00:22:36;-1.10;99.90
31837;DHT22;18401;49.344;6.240;2023-03-01T00:25:03;-1.40;99.90
31837;DHT22;18401;49.344;6.240;2023-03-01T00:27:29;-1.30;99.90
31837;DHT22;18401;49.344;6.240;2023-03-01T00:29:54;-1.50;99.90
31837;DHT22;18401;49.344;6.240;2023-03-01T00:32:20;-1.40;99.90
31837;DHT22;18401;49.344;6.240;2023-03-01T00:34:46;-1.40;99.90
31837;DHT22;18401;49.344;6.240;2023-03-01T00:37:23;-1.50;99.90
31837;DHT22;18401;49.344;6.240;2023-03-01T00:39:49;-1.50;99.90
31837;DHT22;18401;49.344;6.240;2023-03-01T00:42:15;-1.40;99.90
31837;DHT22;18401;49.344;6.240;2023-03-01T00:44:41;-1.40;99.90
31837;DHT22;18401;49.344;6.240;2023-03-01T00:47:07;-1.40;99.90
31837;DHT22;18401;49.344;6.240;2023-03-01T00:49:32;-1.50;99.90
31837;DHT22;18401;49.344;6.240;2023-03-01T00:51:59;-1.50;99.90
31837;DHT22;18401;49.344;6.240;2023-03-01T00:54:24;-1.60;99.90
31837;DHT22;18401;49.344;6.240;2023-03-01T00:56:50;-1.60;99.90
31837;DHT22;18401;49.344;6.240;2023-03-01T00:59:16;-1.50;99.90
31837;DHT22;18401;49.344;6.240;2023-03-01T01:01:42;-1.50;99.90
31837;DHT22;18401;49.344;6.240;2023-03-01T01:04:10;-1.60;99.90
31837;DHT22;18401;49.344;6.240;2023-03-01T01:06:38;-1.70;99.90
31837;DHT22;18401;49.344;6.240;2023-03-01T01:09:06;-1.70;99.90
31837;DHT22;18401;49.344;6.240;2023-03-01T01:11:32;-1.80;99.90
31837;DHT22;18401;49.344;6.240;2023-03-01T01:13:59;-1.70;99.90
31837;DHT22;18401;49.344;6.240;2023-03-01T01:16:27;-1.60;99.90
31837;DHT22;18401;49.344;6.240;2023-03-01T01:18:53;-1.60;99.90
31837;DHT22;18401;49.344;6.240;2023-03-01T01:21:21;-1.70;99.90
31837;DHT22;18401;49.344;6.240;2023-03-01T01:23:48;-1.50;99.90
31837;DHT22;18401;49.344;6.240;2023-03-01T01:26:21;-1.40;99.90
31837;DHT22;18401;49.344;6.240;2023-03-01T01:28:47;-1.50;99.90
31837;DHT22;18401;49.344;6.240;2023-03-01T01:31:13;-1.50;99.90
31837;DHT22;18401;49.344;6.240;2023-03-01T01:33:39;-1.60;99.90
31837;DHT22;18401;49.344;6.240;2023-03-01T01:36:06;-1.60;99.90
31837;DHT22;18401;49.344;6.240;2023-03-01T01:38:33;-1.50;99.90
31837;DHT22;18401;49.344;6.240;2023-03-01T01:40:59;-1.50;99.90
31837;DHT22;18401;49.344;6.240;2023-03-01T01:43:36;-1.60;99.90
31837;DHT22;18401;49.344;6.240;2023-03-01T01:46:28;-1.50;99.90
31837;DHT22;18401;49.344;6.240;2023-03-01T01:51:37;-1.60;99.90
31837;DHT22;18401;49.344;6.240;2023-03-01T01:54:12;-1.70;99.90
31837;DHT22;18401;49.344;6.240;2023-03-01T01:56:42;-1.70;99.90
31837;DHT22;18401;49.344;6.240;2023-03-01T01:59:09;-1.70;99.90
31837;DHT22;18401;49.344;6.240;2023-03-01T02:01:35;-1.70;99.90
31837;DHT22;18401;49.344;6.240;2023-03-01T02:04:01;-1.70;99.90
31837;DHT22;18401;49.344;6.240;2023-03-01T02:06:33;-1.70;99.90
31837;DHT22;18401;49.344;6.240;2023-03-01T02:09:05;-1.70;99.90
31837;DHT22;18401;49.344;6.240;2023-03-01T02:11:32;-1.80;99.90
31837;DHT22;18401;49.344;6.240;2023-03-01T02:13:59;-1.80;99.90
31837;DHT22;18401;49.344;6.240;2023-03-01T02:16:25;-1.80;99.90
31837;DHT22;18401;49.344;6.240;2023-03-01T02:18:52;-1.90;99.90
31837;DHT22;18401;49.344;6.240;2023-03-01T02:21:38;-1.80;99.90
31837;DHT22;18401;49.344;6.240;2023-03-01T02:26:58;-1.90;99.90
31837;DHT22;18401;49.344;6.240;2023-03-01T02:29:26;-1.90;99.90
31837;DHT22;18401;49.344;6.240;2023-03-01T02:31:52;-2.00;99.90
31837;DHT22;18401;49.344;6.240;2023-03-01T02:34:23;-2.10;99.90
31837;DHT22;18401;49.344;6.240;2023-03-01T02:37:13;-2.00;99.90
31837;DHT22;18401;49.344;6.240;2023-03-01T02:39:42;-2.00;99.90
31837;DHT22;18401;49.344;6.240;2023-03-01T02:42:13;-2.10;99.90
31837;DHT22;18401;49.344;6.240;2023-03-01T02:44:39;-2.20;99.90
31837;DHT22;18401;49.344;6.240;2023-03-01T02:47:05;-2.20;99.90
31837;DHT22;18401;49.344;6.240;2023-03-01T02:49:34;-2.20;99.90
31837;DHT22;18401;49.344;6.240;2023-03-01T02:52:27;-2.10;99.90
31837;DHT22;18401;49.344;6.240;2023-03-01T02:54:58;-2.00;99.90
31837;DHT22;18401;49.344;6.240;2023-03-01T02:57:25;-2.10;99.90
31837;DHT22;18401;49.344;6.240;2023-03-01T02:59:54;-2.10;99.90
31837;DHT22;18401;49.344;6.240;2023-03-01T03:02:23;-2.10;99.90
31837;DHT22;18401;49.344;6.240;2023-03-01T03:05:13;-2.00;99.90
31837;DHT22;18401;49.344;6.240;2023-03-01T03:07:41;-2.10;99.90
31837;DHT22;18401;49.344;6.240;2023-03-01T03:10:10;-2.20;99.90
31837;DHT22;18401;49.344;6.240;2023-03-01T03:12:37;-2.20;99.90
31837;DHT22;18401;49.344;6.240;2023-03-01T03:15:04;-2.40;99.90
31837;DHT22;18401;49.344;6.240;2023-03-01T03:17:35;-2.50;99.90
31837;DHT22;18401;49.344;6.240;2023-03-01T03:20:03;-2.60;99.90
31837;DHT22;18401;49.344;6.240;2023-03-01T03:22:29;-2.70;99.90
31837;DHT22;18401;49.344;6.240;2023-03-01T03:24:55;-2.60;99.90
31837;DHT22;18401;49.344;6.240;2023-03-01T03:27:20;-2.60;99.90
31837;DHT22;18401;49.344;6.240;2023-03-01T03:29:46;-2.70;99.90
31837;DHT22;18401;49.344;6.240;2023-03-01T03:32:12;-2.80;99.90
31837;DHT22;18401;49.344;6.240;2023-03-01T03:34:37;-2.90;99.90
31837;DHT22;18401;49.344;6.240;2023-03-01T03:37:03;-2.80;99.90
31837;DHT22;18401;49.344;6.240;2023-03-01T03:39:28;-2.80;99.90
31837;DHT22;18401;49.344;6.240;2023-03-01T03:42:00;-2.80;99.90
31837;DHT22;18401;49.344;6.240;2023-03-01T03:44:25;-2.70;99.90
31837;DHT22;18401;49.344;6.240;2023-03-01T03:46:51;-2.50;99.90
31837;DHT22;18401;49.344;6.240;2023-03-01T03:49:17;-2.40;99.90
31837;DHT22;18401;49.344;6.240;2023-03-01T03:51:45;-2.30;99.90
31837;DHT22;18401;49.344;6.240;2023-03-01T03:54:11;-2.30;99.90
31837;DHT22;18401;49.344;6.240;2023-03-01T03:56:37;-2.30;99.90
31837;DHT22;18401;49.344;6.240;2023-03-01T03:59:03;-2.30;99.90
31837;DHT22;18401;49.344;6.240;2023-03-01T04:01:28;-2.30;99.90
31837;DHT22;18401;49.344;6.240;2023-03-01T04:03:54;-2.40;99.90
31837;DHT22;18401;49.344;6.240;2023-03-01T04:06:20;-2.40;99.90
31837;DHT22;18401;49.344;6.240;2023-03-01T04:08:46;-2.30;99.90
31837;DHT22;18401;49.344;6.240;2023-03-01T04:11:11;-2.30;99.90
31837;DHT22;18401;49.344;6.240;2023-03-01T04:13:55;-2.30;99.90
31837;DHT22;18401;49.344;6.240;2023-03-01T04:16:21;-2.30;99.90
31837;DHT22;18401;49.344;6.240;2023-03-01T04:18:47;-2.40;99.90
31837;DHT22;18401;49.344;6.240;2023-03-01T04:21:13;-2.40;99.90
31837;DHT22;18401;49.344;6.240;2023-03-01T04:23:39;-2.50;99.90
31837;DHT22;18401;49.344;6.240;2023-03-01T04:26:06;-2.50;99.90
31837;DHT22;18401;49.344;6.240;2023-03-01T04:28:34;-2.50;99.90
31837;DHT22;18401;49.344;6.240;2023-03-01T04:31:05;-2.50;99.90
31837;DHT22;18401;49.344;6.240;2023-03-01T05:37:59;-2.60;99.90
31837;DHT22;18401;49.344;6.240;2023-03-01T05:40:24;-2.70;99.90
31837;DHT22;18401;49.344;6.240;2023-03-01T05:42:53;-2.80;99.90
31837;DHT22;18401;49.344;6.240;2023-03-01T05:45:20;-2.80;99.90
31837;DHT22;18401;49.344;6.240;2023-03-01T05:47:48;-2.70;99.90
31837;DHT22;18401;49.344;6.240;2023-03-01T05:52:48;-2.40;99.90
31837;DHT22;18401;49.344;6.240;2023-03-01T05:55:16;-2.40;99.90
31837;DHT22;18401;49.344;6.240;2023-03-01T05:57:42;-2.50;99.90
31837;DHT22;18401;49.344;6.240;2023-03-01T06:00:09;-2.50;99.90
31837;DHT22;18401;49.344;6.240;2023-03-01T06:02:35;-2.50;99.90
31837;DHT22;18401;49.344;6.240;2023-03-01T06:05:01;-2.50;99.90
31837;DHT22;18401;49.344;6.240;2023-03-01T06:07:28;-2.60;99.90
31837;DHT22;18401;49.344;6.240;2023-03-01T06:09:53;-2.60;99.90
31837;DHT22;18401;49.344;6.240;2023-03-01T06:12:19;-2.60;99.90
31837;DHT22;18401;49.344;6.240;2023-03-01T06:14:45;-2.70;99.90
31837;DHT22;18401;49.344;6.240;2023-03-01T06:17:12;-2.70;99.90
31837;DHT22;18401;49.344;6.240;2023-03-01T06:19:37;-2.70;99.90
31837;DHT22;18401;49.344;6.240;2023-03-01T06:22:03;-2.70;99.90
31837;DHT22;18401;49.344;6.240;2023-03-01T06:24:29;-2.60;99.90
31837;DHT22;18401;49.344;6.240;2023-03-01T06:26:54;-2.60;99.90
31837;DHT22;18401;49.344;6.240;2023-03-01T06:29:21;-2.60;99.90
31837;DHT22;18401;49.344;6.240;2023-03-01T06:31:48;-2.50;99.90
31837;DHT22;18401;49.344;6.240;2023-03-01T06:34:14;-2.40;99.90
31837;DHT22;18401;49.344;6.240;2023-03-01T06:36:40;-2.40;99.90
31837;DHT22;18401;49.344;6.240;2023-03-01T06:39:06;-2.30;99.90
31837;DHT22;18401;49.344;6.240;2023-03-01T06:41:32;-2.20;99.90
31837;DHT22;18401;49.344;6.240;2023-03-01T06:43:59;-2.10;99.90
31837;DHT22;18401;49.344;6.240;2023-03-01T06:46:25;-2.10;99.90
31837;DHT22;18401;49.344;6.240;2023-03-01T06:48:50;-2.00;99.90
31837;DHT22;18401;49.344;6.240;2023-03-01T06:51:16;-1.80;99.90
31837;DHT22;18401;49.344;6.240;2023-03-01T06:53:42;-1.70;99.90
31837;DHT22;18401;49.344;6.240;2023-03-01T06:56:08;-1.60;99.90
31837;DHT22;18401;49.344;6.240;2023-03-01T06:58:33;-1.50;99.90
31837;DHT22;18401;49.344;6.240;2023-03-01T07:00:59;-1.40;99.90
31837;DHT22;18401;49.344;6.240;2023-03-01T07:03:25;-1.30;99.90
31837;DHT22;18401;49.344;6.240;2023-03-01T07:05:51;-1.20;99.90
31837;DHT22;18401;49.344;6.240;2023-03-01T07:08:19;-1.20;99.90
31837;DHT22;18401;49.344;6.240;2023-03-01T07:10:45;-1.10;99.90
31837;DHT22;18401;49.344;6.240;2023-03-01T07:13:11;-1.00;99.90
31837;DHT22;18401;49.344;6.240;2023-03-01T07:15:37;-0.90;99.90
31837;DHT22;18401;49.344;6.240;2023-03-01T07:18:02;-0.80;99.90
31837;DHT22;18401;49.344;6.240;2023-03-01T07:20:28;-0.70;99.90
31837;DHT22;18401;49.344;6.240;2023-03-01T07:22:55;-0.60;99.90
31837;DHT22;18401;49.344;6.240;2023-03-01T07:25:21;-0.60;99.90
31837;DHT22;18401;49.344;6.240;2023-03-01T07:27:51;-0.60;99.90
31837;DHT22;18401;49.344;6.240;2023-03-01T07:30:17;-0.50;99.90
31837;DHT22;18401;49.344;6.240;2023-03-01T07:32:43;-0.40;99.90
31837;DHT22;18401;49.344;6.240;2023-03-01T07:35:08;-0.30;99.90
31837;DHT22;18401;49.344;6.240;2023-03-01T07:37:34;-0.30;99.90
31837;DHT22;18401;49.344;6.240;2023-03-01T07:39:59;-0.30;99.90
31837;DHT22;18401;49.344;6.240;2023-03-01T07:42:25;-0.20;99.90
31837;DHT22;18401;49.344;6.240;2023-03-01T07:44:51;-0.20;99.90
31837;DHT22;18401;49.344;6.240;2023-03-01T07:47:16;-0.20;99.90
31837;DHT22;18401;49.344;6.240;2023-03-01T07:49:42;-0.20;99.90
31837;DHT22;18401;49.344;6.240;2023-03-01T07:52:10;-0.20;99.90
31837;DHT22;18401;49.344;6.240;2023-03-01T07:54:36;-0.10;99.90
31837;DHT22;18401;49.344;6.240;2023-03-01T07:57:02;0.00;99.90
31837;DHT22;18401;49.344;6.240;2023-03-01T07:59:27;0.00;99.90
31837;DHT22;18401;49.344;6.240;2023-03-01T08:01:56;0.10;99.90
31837;DHT22;18401;49.344;6.240;2023-03-01T08:04:22;0.20;99.90
31837;DHT22;18401;49.344;6.240;2023-03-01T08:06:50;0.30;99.90
31837;DHT22;18401;49.344;6.240;2023-03-01T08:09:16;0.50;99.90
31837;DHT22;18401;49.344;6.240;2023-03-01T08:11:42;0.60;99.90
31837;DHT22;18401;49.344;6.240;2023-03-01T08:14:07;0.70;99.90
31837;DHT22;18401;49.344;6.240;2023-03-01T08:16:33;0.90;99.90
31837;DHT22;18401;49.344;6.240;2023-03-01T08:19:07;0.70;99.90
31837;DHT22;18401;49.344;6.240;2023-03-01T08:21:33;0.70;99.90
31837;DHT22;18401;49.344;6.240;2023-03-01T08:24:01;0.70;99.90
31837;DHT22;18401;49.344;6.240;2023-03-01T08:26:26;0.70;99.90
31837;DHT22;18401;49.344;6.240;2023-03-01T08:28:52;0.80;99.90
31837;DHT22;18401;49.344;6.240;2023-03-01T08:31:21;1.10;99.90
31837;DHT22;18401;49.344;6.240;2023-03-01T08:33:48;1.30;99.90
31837;DHT22;18401;49.344;6.240;2023-03-01T08:36:17;1.40;99.90
31837;DHT22;18401;49.344;6.240;2023-03-01T08:38:43;1.50;99.90
31837;DHT22;18401;49.344;6.240;2023-03-01T08:41:09;1.60;99.90
31837;DHT22;18401;49.344;6.240;2023-03-01T08:43:35;1.70;99.90
31837;DHT22;18401;49.344;6.240;2023-03-01T08:46:01;1.80;99.90
31837;DHT22;18401;49.344;6.240;2023-03-01T08:48:28;1.90;99.90
31837;DHT22;18401;49.344;6.240;2023-03-01T08:50:54;2.10;99.90
31837;DHT22;18401;49.344;6.240;2023-03-01T08:53:20;2.20;99.90
31837;DHT22;18401;49.344;6.240;2023-03-01T08:55:45;2.40;99.90
31837;DHT22;18401;49.344;6.240;2023-03-01T08:58:11;2.70;99.90
31837;DHT22;18401;49.344;6.240;2023-03-01T09:00:37;2.70;99.90
31837;DHT22;18401;49.344;6.240;2023-03-01T09:03:02;2.60;99.90
31837;DHT22;18401;49.344;6.240;2023-03-01T09:05:30;2.30;99.90
31837;DHT22;18401;49.344;6.240;2023-03-01T09:07:57;2.40;99.90
31837;DHT22;18401;49.344;6.240;2023-03-01T09:10:22;2.70;99.90
31837;DHT22;18401;49.344;6.240;2023-03-01T09:12:48;3.00;99.90
31837;DHT22;18401;49.344;6.240;2023-03-01T09:15:14;3.00;99.90
31837;DHT22;18401;49.344;6.240;2023-03-01T09:17:41;3.10;99.90
31837;DHT22;18401;49.344;6.240;2023-03-01T09:20:06;3.30;99.90
31837;DHT22;18401;49.344;6.240;2023-03-01T09:22:35;3.30;99.90
31837;DHT22;18401;49.344;6.240;2023-03-01T09:25:01;3.50;99.90
31837;DHT22;18401;49.344;6.240;2023-03-01T09:27:27;3.60;99.90
31837;DHT22;18401;49.344;6.240;2023-03-01T09:29:52;3.70;99.90
31837;DHT22;18401;49.344;6.240;2023-03-01T09:32:18;3.80;99.90
31837;DHT22;18401;49.344;6.240;2023-03-01T09:34:44;3.50;99.90
31837;DHT22;18401;49.344;6.240;2023-03-01T09:37:35;3.60;99.90
31837;DHT22;18401;49.344;6.240;2023-03-01T09:40:03;3.90;99.90
31837;DHT22;18401;49.344;6.240;2023-03-01T09:42:30;4.10;99.90
31837;DHT22;18401;49.344;6.240;2023-03-01T09:45:05;3.90;98.50
31837;DHT22;18401;49.344;6.240;2023-03-01T09:47:33;3.90;96.80
31837;DHT22;18401;49.344;6.240;2023-03-01T09:50:16;3.80;95.40
31837;DHT22;18401;49.344;6.240;2023-03-01T09:52:53;3.80;96.70
31837;DHT22;18401;49.344;6.240;2023-03-01T09:55:31;3.90;96.70
31837;DHT22;18401;49.344;6.240;2023-03-01T10:00:42;4.90;94.80
31837;DHT22;18401;49.344;6.240;2023-03-01T10:03:19;5.40;91.90
31837;DHT22;18401;49.344;6.240;2023-03-01T10:08:55;5.40;72.20
31837;DHT22;18401;49.344;6.240;2023-03-01T10:11:25;5.90;63.80
31837;DHT22;18401;49.344;6.240;2023-03-01T10:17:20;6.00;39.80
31837;DHT22;18401;49.344;6.240;2023-03-01T10:19:49;6.10;36.20
31837;DHT22;18401;49.344;6.240;2023-03-01T10:22:26;6.60;33.60
31837;DHT22;18401;49.344;6.240;2023-03-01T10:24:55;7.00;20.50
31837;DHT22;18401;49.344;6.240;2023-03-01T10:27:24;7.10;10.10
31837;DHT22;18401;49.344;6.240;2023-03-01T10:30:04;7.40;6.30
31837;DHT22;18401;49.344;6.240;2023-03-01T10:32:32;7.00;1.00
31837;DHT22;18401;49.344;6.240;2023-03-01T10:34:58;6.80;1.00
31837;DHT22;18401;49.344;6.240;2023-03-01T10:37:24;7.70;6.20
31837;DHT22;18401;49.344;6.240;2023-03-01T10:40:05;7.90;1.00
31837;DHT22;18401;49.344;6.240;2023-03-01T10:42:37;8.50;1.00
31837;DHT22;18401;49.344;6.240;2023-03-01T10:50:34;9.10;1.00
31837;DHT22;18401;49.344;6.240;2023-03-01T10:53:02;9.10;1.00
31837;DHT22;18401;49.344;6.240;2023-03-01T10:55:35;9.30;1.00
31837;DHT22;18401;49.344;6.240;2023-03-01T11:03:37;9.00;1.00
31837;DHT22;18401;49.344;6.240;2023-03-01T11:16:40;8.10;1.00
31837;DHT22;18401;49.344;6.240;2023-03-01T11:21:41;9.20;1.00
31837;DHT22;18401;49.344;6.240;2023-03-01T11:24:12;9.40;1.00
31837;DHT22;18401;49.344;6.240;2023-03-01T11:26:45;9.10;1.00
31837;DHT22;18401;49.344;6.240;2023-03-01T11:29:26;9.40;1.00
31837;DHT22;18401;49.344;6.240;2023-03-01T11:31:56;10.20;1.00
31837;DHT22;18401;49.344;6.240;2023-03-01T11:34:51;10.40;1.00
31837;DHT22;18401;49.344;6.240;2023-03-01T11:37:32;10.70;1.00
31837;DHT22;18401;49.344;6.240;2023-03-01T11:45:10;10.80;1.00
31837;DHT22;18401;49.344;6.240;2023-03-01T12:07:02;12.00;99.90
31837;DHT22;18401;49.344;6.240;2023-03-01T12:12:18;11.30;99.90
31837;DHT22;18401;49.344;6.240;2023-03-01T12:20:28;11.70;99.90
31837;DHT22;18401;49.344;6.240;2023-03-01T12:26:20;11.60;99.90
31837;DHT22;18401;49.344;6.240;2023-03-01T12:28:19;11.50;99.90
31837;DHT22;18401;49.344;6.240;2023-03-01T12:50:51;11.40;99.90
31837;DHT22;18401;49.344;6.240;2023-03-01T12:55:49;11.30;99.90
31837;DHT22;18401;49.344;6.240;2023-03-01T13:09:40;11.80;99.90
31837;DHT22;18401;49.344;6.240;2023-03-01T13:15:31;11.80;99.90
31837;DHT22;18401;49.344;6.240;2023-03-01T13:20:49;11.50;99.90
31837;DHT22;18401;49.344;6.240;2023-03-01T13:31:04;10.90;99.90
31837;DHT22;18401;49.344;6.240;2023-03-01T13:35:57;11.80;99.90
31837;DHT22;18401;49.344;6.240;2023-03-01T13:41:09;11.10;99.90
31837;DHT22;18401;49.344;6.240;2023-03-01T13:43:37;11.40;99.90
31837;DHT22;18401;49.344;6.240;2023-03-01T13:46:29;12.00;99.90
31837;DHT22;18401;49.344;6.240;2023-03-01T13:48:56;11.90;99.90
31837;DHT22;18401;49.344;6.240;2023-03-01T13:51:27;12.00;99.90
31837;DHT22;18401;49.344;6.240;2023-03-01T13:53:54;11.70;99.90
31837;DHT22;18401;49.344;6.240;2023-03-01T13:56:29;10.90;99.90
31837;DHT22;18401;49.344;6.240;2023-03-01T13:59:13;10.90;99.90
31837;DHT22;18401;49.344;6.240;2023-03-01T14:01:39;10.30;99.90
31837;DHT22;18401;49.344;6.240;2023-03-01T14:04:26;11.00;99.90
31837;DHT22;18401;49.344;6.240;2023-03-01T14:07:18;11.50;99.90
31837;DHT22;18401;49.344;6.240;2023-03-01T14:09:47;11.90;99.90
31837;DHT22;18401;49.344;6.240;2023-03-01T14:14:57;12.00;99.90
31837;DHT22;18401;49.344;6.240;2023-03-01T14:20:07;10.90;99.90
31837;DHT22;18401;49.344;6.240;2023-03-01T14:22:34;11.20;99.90
31837;DHT22;18401;49.344;6.240;2023-03-01T14:25:24;11.20;99.90
31837;DHT22;18401;49.344;6.240;2023-03-01T14:30:58;12.20;99.90
31837;DHT22;18401;49.344;6.240;2023-03-01T14:33:23;11.20;99.90
31837;DHT22;18401;49.344;6.240;2023-03-01T14:36:05;11.70;99.90
31837;DHT22;18401;49.344;6.240;2023-03-01T14:38:38;12.20;99.90
31837;DHT22;18401;49.344;6.240;2023-03-01T14:41:07;12.20;99.90
31837;DHT22;18401;49.344;6.240;2023-03-01T14:43:35;11.70;99.90
31837;DHT22;18401;49.344;6.240;2023-03-01T14:46:01;11.00;99.90
31837;DHT22;18401;49.344;6.240;2023-03-01T14:48:28;10.80;99.90
31837;DHT22;18401;49.344;6.240;2023-03-01T14:50:55;10.80;99.90
31837;DHT22;18401;49.344;6.240;2023-03-01T14:53:27;11.20;99.90
31837;DHT22;18401;49.344;6.240;2023-03-01T14:55:56;11.80;99.90
31837;DHT22;18401;49.344;6.240;2023-03-01T14:58:25;11.90;99.90
31837;DHT22;18401;49.344;6.240;2023-03-01T15:00:54;12.10;99.90
31837;DHT22;18401;49.344;6.240;2023-03-01T15:03:37;12.10;99.90
31837;DHT22;18401;49.344;6.240;2023-03-01T15:06:05;12.20;99.90
31837;DHT22;18401;49.344;6.240;2023-03-01T15:08:31;12.30;99.90
31837;DHT22;18401;49.344;6.240;2023-03-01T15:11:22;13.00;99.90
31837;DHT22;18401;49.344;6.240;2023-03-01T15:13:48;13.20;99.90
31837;DHT22;18401;49.344;6.240;2023-03-01T15:16:19;12.60;99.90
31837;DHT22;18401;49.344;6.240;2023-03-01T15:18:54;12.20;99.90
31837;DHT22;18401;49.344;6.240;2023-03-01T15:21:34;12.00;99.90
31837;DHT22;18401;49.344;6.240;2023-03-01T15:24:23;12.10;99.90
31837;DHT22;18401;49.344;6.240;2023-03-01T15:26:58;12.20;99.90
31837;DHT22;18401;49.344;6.240;2023-03-01T15:29:29;11.70;99.90
31837;DHT22;18401;49.344;6.240;2023-03-01T15:32:23;11.90;99.90
31837;DHT22;18401;49.344;6.240;2023-03-01T15:34:49;12.60;99.90
31837;DHT22;18401;49.344;6.240;2023-03-01T15:37:39;12.80;99.90
31837;DHT22;18401;49.344;6.240;2023-03-01T15:40:48;12.50;99.90
31837;DHT22;18401;49.344;6.240;2023-03-01T15:43:44;12.30;99.90
31837;DHT22;18401;49.344;6.240;2023-03-01T15:48:47;12.20;99.90
31837;DHT22;18401;49.344;6.240;2023-03-01T15:51:15;11.70;99.90
31837;DHT22;18401;49.344;6.240;2023-03-01T15:53:42;11.60;99.90
31837;DHT22;18401;49.344;6.240;2023-03-01T15:56:09;11.50;99.90
31837;DHT22;18401;49.344;6.240;2023-03-01T15:58:34;11.20;99.90
31837;DHT22;18401;49.344;6.240;2023-03-01T16:01:00;11.00;99.90
31837;DHT22;18401;49.344;6.240;2023-03-01T16:03:26;11.20;99.90
31837;DHT22;18401;49.344;6.240;2023-03-01T16:05:52;10.70;99.90
31837;DHT22;18401;49.344;6.240;2023-03-01T16:08:18;10.60;99.90
31837;DHT22;18401;49.344;6.240;2023-03-01T16:10:44;10.30;99.90
31837;DHT22;18401;49.344;6.240;2023-03-01T16:13:14;10.40;99.90
31837;DHT22;18401;49.344;6.240;2023-03-01T16:15:40;10.30;99.90
31837;DHT22;18401;49.344;6.240;2023-03-01T16:18:06;10.00;99.90
31837;DHT22;18401;49.344;6.240;2023-03-01T16:20:33;9.90;99.90
31837;DHT22;18401;49.344;6.240;2023-03-01T16:23:01;9.80;99.90
31837;DHT22;18401;49.344;6.240;2023-03-01T16:25:28;9.90;99.90
31837;DHT22;18401;49.344;6.240;2023-03-01T16:27:54;9.80;1.00
31837;DHT22;18401;49.344;6.240;2023-03-01T16:30:22;9.70;1.00
31837;DHT22;18401;49.344;6.240;2023-03-01T16:32:49;9.40;1.00
31837;DHT22;18401;49.344;6.240;2023-03-01T16:35:17;9.30;1.00
31837;DHT22;18401;49.344;6.240;2023-03-01T16:37:43;9.40;1.00
31837;DHT22;18401;49.344;6.240;2023-03-01T16:40:22;9.30;1.00
31837;DHT22;18401;49.344;6.240;2023-03-01T16:42:49;9.10;1.00
31837;DHT22;18401;49.344;6.240;2023-03-01T16:45:15;9.00;1.00
31837;DHT22;18401;49.344;6.240;2023-03-01T16:47:41;8.90;1.00
31837;DHT22;18401;49.344;6.240;2023-03-01T16:50:08;8.70;1.00
31837;DHT22;18401;49.344;6.240;2023-03-01T16:52:34;8.50;1.00
31837;DHT22;18401;49.344;6.240;2023-03-01T16:54:59;8.30;1.00
31837;DHT22;18401;49.344;6.240;2023-03-01T16:57:25;8.10;1.00
31837;DHT22;18401;49.344;6.240;2023-03-01T16:59:52;7.90;1.00
31837;DHT22;18401;49.344;6.240;2023-03-01T17:02:19;7.50;1.00
31837;DHT22;18401;49.344;6.240;2023-03-01T17:04:50;7.00;1.00
31837;DHT22;18401;49.344;6.240;2023-03-01T17:07:16;6.70;1.00
31837;DHT22;18401;49.344;6.240;2023-03-01T17:09:42;6.40;1.00
31837;DHT22;18401;49.344;6.240;2023-03-01T17:12:07;6.20;1.00
31837;DHT22;18401;49.344;6.240;2023-03-01T17:14:34;5.90;1.00
31837;DHT22;18401;49.344;6.240;2023-03-01T17:17:00;5.70;1.00
31837;DHT22;18401;49.344;6.240;2023-03-01T17:19:26;5.50;2.00
31837;DHT22;18401;49.344;6.240;2023-03-01T17:21:53;5.40;6.10
31837;DHT22;18401;49.344;6.240;2023-03-01T17:24:18;5.30;9.50
31837;DHT22;18401;49.344;6.240;2023-03-01T17:26:44;5.10;12.70
31837;DHT22;18401;49.344;6.240;2023-03-01T17:29:10;4.90;16.20
31837;DHT22;18401;49.344;6.240;2023-03-01T17:31:37;4.70;18.90
31837;DHT22;18401;49.344;6.240;2023-03-01T17:34:03;4.70;21.90
31837;DHT22;18401;49.344;6.240;2023-03-01T17:36:28;4.60;24.60
31837;DHT22;18401;49.344;6.240;2023-03-01T17:38:54;4.50;27.80
31837;DHT22;18401;49.344;6.240;2023-03-01T17:41:20;4.40;29.80
31837;DHT22;18401;49.344;6.240;2023-03-01T17:43:48;4.30;31.80
31837;DHT22;18401;49.344;6.240;2023-03-01T17:46:13;4.20;35.00
31837;DHT22;18401;49.344;6.240;2023-03-01T17:48:39;4.20;38.80
31837;DHT22;18401;49.344;6.240;2023-03-01T17:51:09;4.10;41.00
31837;DHT22;18401;49.344;6.240;2023-03-01T17:53:36;4.00;43.60
31837;DHT22;18401;49.344;6.240;2023-03-01T17:56:04;4.00;45.40
31837;DHT22;18401;49.344;6.240;2023-03-01T17:58:30;3.90;47.30
31837;DHT22;18401;49.344;6.240;2023-03-01T18:01:24;3.90;49.60
31837;DHT22;18401;49.344;6.240;2023-03-01T18:03:51;3.90;51.00
31837;DHT22;18401;49.344;6.240;2023-03-01T18:08:45;3.70;54.40
31837;DHT22;18401;49.344;6.240;2023-03-01T18:11:14;3.70;57.10
31837;DHT22;18401;49.344;6.240;2023-03-01T18:13:40;3.80;58.70
31837;DHT22;18401;49.344;6.240;2023-03-01T18:16:07;3.70;59.20
31837;DHT22;18401;49.344;6.240;2023-03-01T18:18:34;3.60;59.80
31837;DHT22;18401;49.344;6.240;2023-03-01T18:21:00;3.60;61.60
31837;DHT22;18401;49.344;6.240;2023-03-01T18:23:26;3.50;61.90
31837;DHT22;18401;49.344;6.240;2023-03-01T18:25:57;3.40;63.00
31837;DHT22;18401;49.344;6.240;2023-03-01T18:28:23;3.20;65.90
31837;DHT22;18401;49.344;6.240;2023-03-01T18:30:55;3.10;70.30
31837;DHT22;18401;49.344;6.240;2023-03-01T18:33:21;3.10;74.20
31837;DHT22;18401;49.344;6.240;2023-03-01T18:35:46;2.90;76.60
31837;DHT22;18401;49.344;6.240;2023-03-01T18:38:14;2.60;80.30
31837;DHT22;18401;49.344;6.240;2023-03-01T18:40:42;2.70;85.60
31837;DHT22;18401;49.344;6.240;2023-03-01T18:43:07;2.70;88.50
31837;DHT22;18401;49.344;6.240;2023-03-01T18:45:33;2.80;89.60
31837;DHT22;18401;49.344;6.240;2023-03-01T18:47:59;2.90;87.10
31837;DHT22;18401;49.344;6.240;2023-03-01T18:50:25;2.80;86.70
31837;DHT22;18401;49.344;6.240;2023-03-01T18:52:50;2.60;87.60
31837;DHT22;18401;49.344;6.240;2023-03-01T18:55:16;2.50;90.00
31837;DHT22;18401;49.344;6.240;2023-03-01T18:57:42;2.30;90.20
31837;DHT22;18401;49.344;6.240;2023-03-01T19:00:08;2.20;91.30
31837;DHT22;18401;49.344;6.240;2023-03-01T19:02:34;2.20;92.70
31837;DHT22;18401;49.344;6.240;2023-03-01T19:05:00;2.10;93.50
31837;DHT22;18401;49.344;6.240;2023-03-01T19:07:25;2.00;94.20
31837;DHT22;18401;49.344;6.240;2023-03-01T19:09:51;1.90;95.00
31837;DHT22;18401;49.344;6.240;2023-03-01T19:12:17;1.90;95.60
31837;DHT22;18401;49.344;6.240;2023-03-01T19:14:42;1.80;96.70